CCA3296 ZJSY-ZBAA
Flight info
| Callsign | CCA3296 |
|---|---|
| Flight time | N/A |
| Altitude | 41100 |
| Route | PORAP W222 NUMKU W223 AGTEL W71 LH/K0902S1220 R339 BHY DCT LBN/K0895S1250 W2 PA/K0900S1220 W2 SJG/K0893S1250 W102 ZHJ/K0900S1220 W102 ENH/K0896S1250 W102 SHX W4 VADMO W56 LEBUN/K0917S1310 W56 NUDKU/K0913S1250 W56 DUGEB |
| Aircraft | A359/H-SDE2E3GHIJ3J4J5LM1ORWXY/LB1D1 |
Departure
| Time | 2026-04-30 00:42 |
|---|---|
| Airport | Sanya Phoenix International Airport (ZJSY) |
Arrival
| Time | N/A |
|---|---|
| Airport | Beijing Capital International Airport (ZBAA) |
| Time | Latitude | Longitude | Altitude | Speed | Heading |
|---|---|---|---|---|---|
| 2026-04-30 00:32 | 18.30451 | 109.39884 | 94 ft | 0 kts | 263° |
| 2026-04-30 00:38 | 18.30449 | 109.39871 | 93 ft | 7 kts | 263° |
| 2026-04-30 00:38 | 18.30424 | 109.39821 | 94 ft | 8 kts | 220° |
| 2026-04-30 00:39 | 18.30386 | 109.39816 | 95 ft | 6 kts | 175° |
| 2026-04-30 00:39 | 18.30337 | 109.39821 | 94 ft | 8 kts | 174° |
| 2026-04-30 00:39 | 18.30288 | 109.39802 | 93 ft | 7 kts | 237° |
| 2026-04-30 00:39 | 18.30276 | 109.39748 | 93 ft | 9 kts | 263° |
| 2026-04-30 00:40 | 18.30254 | 109.39685 | 96 ft | 10 kts | 240° |
| 2026-04-30 00:40 | 18.30208 | 109.39642 | 94 ft | 8 kts | 206° |
| 2026-04-30 00:40 | 18.30162 | 109.39639 | 97 ft | 7 kts | 176° |
| 2026-04-30 00:40 | 18.30105 | 109.39647 | 95 ft | 10 kts | 169° |
| 2026-04-30 00:41 | 18.30089 | 109.39687 | 95 ft | 7 kts | 81° |
| 2026-04-30 00:41 | 18.30108 | 109.39824 | 97 ft | 49 kts | 82° |
| 2026-04-30 00:41 | 18.30188 | 109.40438 | 94 ft | 120 kts | 82° |
| 2026-04-30 00:41 | 18.30333 | 109.41511 | 171 ft | 168 kts | 83° |
| 2026-04-30 00:42 | 18.30484 | 109.42699 | 927 ft | 163 kts | 85° |
| 2026-04-30 00:42 | 18.30616 | 109.43867 | 1782 ft | 158 kts | 85° |
| 2026-04-30 00:42 | 18.30688 | 109.45013 | 2420 ft | 161 kts | 98° |
| 2026-04-30 00:42 | 18.30027 | 109.45925 | 2861 ft | 164 kts | 157° |
| 2026-04-30 00:43 | 18.28897 | 109.45932 | 3227 ft | 169 kts | 203° |
| 2026-04-30 00:43 | 18.28041 | 109.45119 | 3630 ft | 173 kts | 245° |
| 2026-04-30 00:43 | 18.27945 | 109.43839 | 3865 ft | 185 kts | 288° |
| 2026-04-30 00:43 | 18.28408 | 109.42519 | 4106 ft | 201 kts | 295° |
| 2026-04-30 00:44 | 18.29092 | 109.41198 | 4429 ft | 213 kts | 309° |
| 2026-04-30 00:44 | 18.30249 | 109.40225 | 4892 ft | 218 kts | 337° |
| 2026-04-30 00:44 | 18.31758 | 109.39975 | 5321 ft | 228 kts | 7° |
| 2026-04-30 00:44 | 18.33242 | 109.40640 | 5655 ft | 243 kts | 41° |
| 2026-04-30 00:45 | 18.34190 | 109.42154 | 5911 ft | 259 kts | 75° |
| 2026-04-30 00:45 | 18.34754 | 109.44022 | 6136 ft | 276 kts | 65° |
| 2026-04-30 00:45 | 18.35859 | 109.45696 | 6631 ft | 280 kts | 51° |
| 2026-04-30 00:45 | 18.37131 | 109.47265 | 7129 ft | 285 kts | 50° |
| 2026-04-30 00:46 | 18.38441 | 109.48845 | 7645 ft | 288 kts | 50° |
| 2026-04-30 00:46 | 18.39772 | 109.50446 | 8143 ft | 292 kts | 50° |
| 2026-04-30 00:46 | 18.41118 | 109.52064 | 8718 ft | 294 kts | 49° |
| 2026-04-30 00:46 | 18.42455 | 109.53673 | 9266 ft | 297 kts | 50° |
| 2026-04-30 00:47 | 18.43815 | 109.55312 | 9853 ft | 298 kts | 49° |
| 2026-04-30 00:47 | 18.45166 | 109.56937 | 10607 ft | 289 kts | 49° |
| 2026-04-30 00:47 | 18.46482 | 109.58520 | 11240 ft | 287 kts | 49° |
| 2026-04-30 00:47 | 18.47805 | 109.60110 | 11780 ft | 289 kts | 49° |
| 2026-04-30 00:48 | 18.49105 | 109.61733 | 12301 ft | 291 kts | 53° |
| 2026-04-30 00:48 | 18.49983 | 109.63672 | 12817 ft | 297 kts | 79° |
| 2026-04-30 00:48 | 18.49913 | 109.65835 | 13254 ft | 301 kts | 109° |
| 2026-04-30 00:48 | 18.48889 | 109.67735 | 13687 ft | 301 kts | 137° |
| 2026-04-30 00:49 | 18.47195 | 109.68956 | 14103 ft | 298 kts | 164° |
| 2026-04-30 00:49 | 18.45185 | 109.69306 | 14504 ft | 292 kts | 189° |
| 2026-04-30 00:49 | 18.43264 | 109.68741 | 14942 ft | 285 kts | 214° |
| 2026-04-30 00:49 | 18.41721 | 109.67474 | 15378 ft | 282 kts | 229° |
| 2026-04-30 00:50 | 18.40313 | 109.66017 | 15709 ft | 289 kts | 229° |
| 2026-04-30 00:50 | 18.38823 | 109.64525 | 15899 ft | 300 kts | 230° |